Time;durP1;ratioP1;P1;durP2;ratioP2;P2;SDS_P1;SDS_P2;PMS_P1;PMS_P2;Temp;Humidity;BMP_temperature;BMP_pressure;BME280_temperature;BME280_humidity;BME280_pressure;Samples;Min_cycle;Max_cycle;Signal;HPM_P1;HPM_P2
2023/03/16 00:02:10;;;;;;;4.45;2.75;;;;;;;;;;5025180;28;20428;-62
2023/03/16 00:04:37;;;;;;;4.72;2.80;;;;;;;;;;5028183;28;20041;-62
2023/03/16 00:07:06;;;;;;;7.05;3.10;;;;;;;;;;5042554;28;20041;-61
2023/03/16 00:09:33;;;;;;;7.00;3.05;;;;;;;;;;5047369;28;20047;-62
2023/03/16 00:12:02;;;;;;;4.28;2.47;;;;;;;;;;5042243;28;20088;-62
2023/03/16 00:14:28;;;;;;;5.75;3.60;;;;;;;;;;5049070;28;20471;-62
2023/03/16 00:16:54;;;;;;;5.55;3.10;;;;;;;;;;5050321;28;20045;-62
2023/03/16 00:19:23;;;;;;;9.30;3.75;;;;;;;;;;5030470;28;20128;-62
2023/03/16 00:21:50;;;;;;;4.97;2.67;;;;;;;;;;5043697;28;20072;-62
2023/03/16 00:24:17;;;;;;;6.07;3.00;;;;;;;;;;5044817;28;20038;-62
2023/03/16 00:26:44;;;;;;;10.60;4.40;;;;;;;;;;5046947;28;20165;-62
2023/03/16 00:29:10;;;;;;;7.38;2.60;;;;;;;;;;5048868;28;20175;-62
2023/03/16 00:31:37;;;;;;;5.22;2.40;;;;;;;;;;5045624;28;20463;-62
2023/03/16 00:34:03;;;;;;;4.68;2.60;;;;;;;;;;5030523;28;20505;-61
2023/03/16 00:36:32;;;;;;;7.35;3.10;;;;;;;;;;5028273;28;20045;-61
2023/03/16 00:38:58;;;;;;;7.63;3.80;;;;;;;;;;5047638;28;20127;-62
2023/03/16 00:41:25;;;;;;;5.75;3.05;;;;;;;;;;5028438;28;20033;-62
2023/03/16 00:43:52;;;;;;;4.38;2.95;;;;;;;;;;5041917;28;20064;-62
2023/03/16 00:46:18;;;;;;;4.45;2.80;;;;;;;;;;5046221;28;20395;-62
2023/03/16 00:48:45;;;;;;;7.38;3.03;;;;;;;;;;5024189;28;20041;-62
2023/03/16 00:51:16;;;;;;;5.85;3.13;;;;;;;;;;5042646;28;20045;-62
2023/03/16 00:53:43;;;;;;;5.80;2.72;;;;;;;;;;5043984;28;20116;-61
2023/03/16 00:56:10;;;;;;;5.88;2.97;;;;;;;;;;5044436;28;20036;-62
2023/03/16 00:58:37;;;;;;;5.93;3.38;;;;;;;;;;5045027;28;20039;-62
2023/03/16 01:01:08;;;;;;;8.20;3.28;;;;;;;;;;5039655;28;20037;-62
2023/03/16 01:03:34;;;;;;;10.35;3.42;;;;;;;;;;5047014;28;20411;-61
2023/03/16 01:06:05;;;;;;;5.93;2.80;;;;;;;;;;5040720;28;20111;-62
2023/03/16 01:08:31;;;;;;;7.93;3.92;;;;;;;;;;5039527;28;20060;-62
2023/03/16 01:11:02;;;;;;;8.68;3.47;;;;;;;;;;5051667;28;20569;-62
2023/03/16 01:13:28;;;;;;;3.58;2.72;;;;;;;;;;5044892;28;20049;-62
2023/03/16 01:15:54;;;;;;;4.55;3.13;;;;;;;;;;5023554;28;20041;-61
2023/03/16 01:18:21;;;;;;;6.90;3.30;;;;;;;;;;5043055;28;20363;-62
2023/03/16 01:20:50;;;;;;;5.97;2.88;;;;;;;;;;5043400;28;20083;-62
2023/03/16 01:23:17;;;;;;;7.32;3.28;;;;;;;;;;5029808;28;20033;-62
2023/03/16 01:25:43;;;;;;;6.45;3.90;;;;;;;;;;5027931;28;20072;-61
2023/03/16 01:28:09;;;;;;;5.85;3.72;;;;;;;;;;5043546;28;20149;-62
2023/03/16 01:30:35;;;;;;;5.72;3.50;;;;;;;;;;5032096;28;20480;-62
2023/03/16 01:33:02;;;;;;;5.60;3.42;;;;;;;;;;5045951;28;20025;-62
2023/03/16 01:35:28;;;;;;;5.22;3.10;;;;;;;;;;5042904;28;20041;-62
2023/03/16 01:37:54;;;;;;;5.47;3.17;;;;;;;;;;5047282;28;20040;-62
2023/03/16 01:40:21;;;;;;;6.07;3.55;;;;;;;;;;5046764;28;20040;-62
2023/03/16 01:42:48;;;;;;;7.05;3.15;;;;;;;;;;5047544;28;20063;-62
2023/03/16 01:45:33;;;;;;;8.43;3.85;;;;;;;;;;5040349;28;20175;-62
2023/03/16 01:47:59;;;;;;;7.65;4.03;;;;;;;;;;5021950;28;20521;-61
2023/03/16 01:50:26;;;;;;;5.10;3.25;;;;;;;;;;5044981;28;20079;-61
2023/03/16 01:52:52;;;;;;;6.15;3.17;;;;;;;;;;5045208;28;20052;-62
2023/03/16 01:55:18;;;;;;;6.30;3.45;;;;;;;;;;5033434;28;20131;-62
2023/03/16 01:57:46;;;;;;;5.72;3.40;;;;;;;;;;5040598;28;20120;-61
2023/03/16 02:00:22;;;;;;;6.95;3.90;;;;;;;;;;5044777;28;20121;-61
2023/03/16 02:02:54;;;;;;;5.25;3.63;;;;;;;;;;5042297;28;20469;-62
2023/03/16 02:05:24;;;;;;;5.90;3.65;;;;;;;;;;5039471;28;20065;-62
2023/03/16 02:07:51;;;;;;;5.45;2.67;;;;;;;;;;5039869;28;20040;-62
2023/03/16 02:10:18;;;;;;;4.70;3.25;;;;;;;;;;5039113;28;20029;-62
2023/03/16 02:12:44;;;;;;;5.05;3.00;;;;;;;;;;5047338;28;20037;-62
2023/03/16 02:15:12;;;;;;;5.53;3.72;;;;;;;;;;5048922;28;20097;-62
2023/03/16 02:17:41;;;;;;;7.05;4.18;;;;;;;;;;5045073;28;20518;-62
2023/03/16 02:20:13;;;;;;;3.97;2.72;;;;;;;;;;5045291;28;20094;-61
2023/03/16 02:22:42;;;;;;;6.68;3.53;;;;;;;;;;5044530;28;20033;-62
2023/03/16 02:25:09;;;;;;;4.70;3.47;;;;;;;;;;5048974;28;20094;-61
2023/03/16 02:27:38;;;;;;;4.65;3.25;;;;;;;;;;5053890;28;20046;-62
2023/03/16 02:30:10;;;;;;;8.15;4.05;;;;;;;;;;5048609;28;20037;-62
2023/03/16 02:32:37;;;;;;;4.63;3.35;;;;;;;;;;5051236;28;20040;-61
2023/03/16 02:35:04;;;;;;;7.72;3.45;;;;;;;;;;5045881;28;20124;-62
2023/03/16 02:37:32;;;;;;;6.35;3.08;;;;;;;;;;5046822;28;20037;-62
2023/03/16 02:39:59;;;;;;;6.63;3.60;;;;;;;;;;5049321;28;20040;-62
2023/03/16 02:42:26;;;;;;;7.03;3.30;;;;;;;;;;5032459;28;20488;-62
2023/03/16 02:44:55;;;;;;;5.78;3.75;;;;;;;;;;5049348;28;20158;-62
2023/03/16 02:47:28;;;;;;;5.90;3.38;;;;;;;;;;5055779;28;20044;-62
2023/03/16 02:49:54;;;;;;;;;;;;;;;;;;5041907;28;20361;-62
2023/03/16 02:52:20;;;;;;;7.65;3.78;;;;;;;;;;5049242;28;20298;-62
2023/03/16 02:54:46;;;;;;;5.97;3.50;;;;;;;;;;5048064;28;20045;-64
2023/03/16 02:57:12;;;;;;;6.53;3.45;;;;;;;;;;5055342;28;20095;-62
2023/03/16 02:59:38;;;;;;;5.68;3.05;;;;;;;;;;5049260;28;20112;-62
2023/03/16 03:02:05;;;;;;;6.18;3.38;;;;;;;;;;5042914;28;20092;-62
2023/03/16 03:04:32;;;;;;;4.82;3.25;;;;;;;;;;5046317;28;20124;-62
2023/03/16 03:07:03;;;;;;;5.07;3.72;;;;;;;;;;5045787;28;20048;-62
2023/03/16 03:09:31;;;;;;;5.40;3.78;;;;;;;;;;5040794;28;20228;-61
2023/03/16 03:11:57;;;;;;;6.38;3.78;;;;;;;;;;5016418;28;20056;-62
2023/03/16 03:14:24;;;;;;;5.57;2.95;;;;;;;;;;5031413;28;20048;-62
2023/03/16 03:16:51;;;;;;;6.32;3.17;;;;;;;;;;5034154;28;20069;-62
2023/03/16 03:19:17;;;;;;;6.50;4.65;;;;;;;;;;5043818;28;20056;-62
2023/03/16 03:21:43;;;;;;;5.45;3.72;;;;;;;;;;5015223;28;20040;-61
2023/03/16 03:24:10;;;;;;;7.60;3.97;;;;;;;;;;5023297;28;20037;-62
2023/03/16 03:26:36;;;;;;;6.95;3.83;;;;;;;;;;5025182;28;20107;-62
2023/03/16 03:29:03;;;;;;;5.93;3.45;;;;;;;;;;5038183;28;20519;-62
2023/03/16 03:31:29;;;;;;;6.85;4.40;;;;;;;;;;5047642;28;20037;-62
2023/03/16 03:33:56;;;;;;;4.82;3.58;;;;;;;;;;5039563;28;20424;-62
2023/03/16 03:36:22;;;;;;;7.63;3.53;;;;;;;;;;5022574;28;20122;-62
2023/03/16 03:38:53;;;;;;;9.05;3.60;;;;;;;;;;5040294;28;20460;-61
2023/03/16 03:41:21;;;;;;;6.53;3.67;;;;;;;;;;5027659;28;20077;-62
2023/03/16 03:43:47;;;;;;;6.80;4.13;;;;;;;;;;5027386;28;20033;-62
2023/03/16 03:46:13;;;;;;;10.48;4.05;;;;;;;;;;5043925;28;20069;-62
2023/03/16 03:48:39;;;;;;;5.30;3.45;;;;;;;;;;5039821;28;20052;-61
2023/03/16 03:51:06;;;;;;;6.85;4.05;;;;;;;;;;5027698;28;20044;-62
2023/03/16 03:53:32;;;;;;;7.70;3.88;;;;;;;;;;5043515;28;20351;-62
2023/03/16 03:55:58;;;;;;;7.47;4.15;;;;;;;;;;5048544;28;20048;-62
2023/03/16 03:58:24;;;;;;;6.45;3.90;;;;;;;;;;5047327;28;20426;-62
2023/03/16 04:00:51;;;;;;;8.23;4.55;;;;;;;;;;5040968;28;20041;-62
2023/03/16 04:03:17;;;;;;;6.03;3.70;;;;;;;;;;5045705;28;20582;-62
2023/03/16 04:05:43;;;;;;;5.93;4.07;;;;;;;;;;5050034;28;20052;-61
2023/03/16 04:08:10;;;;;;;6.82;4.07;;;;;;;;;;5052703;28;20040;-62
2023/03/16 04:10:36;;;;;;;6.53;4.25;;;;;;;;;;5047890;28;20238;-62
2023/03/16 04:13:02;;;;;;;4.60;3.63;;;;;;;;;;5043788;28;20529;-62
2023/03/16 04:15:31;;;;;;;6.07;4.38;;;;;;;;;;5049009;28;20108;-62
2023/03/16 04:17:58;;;;;;;5.43;4.00;;;;;;;;;;5028715;28;20040;-62
2023/03/16 04:20:24;;;;;;;10.63;4.43;;;;;;;;;;5042492;28;20103;-62
2023/03/16 04:22:57;;;;;;;4.55;3.78;;;;;;;;;;5036267;28;20036;-61
2023/03/16 04:25:24;;;;;;;6.57;4.38;;;;;;;;;;5045196;28;20044;-62
2023/03/16 04:27:50;;;;;;;5.68;4.43;;;;;;;;;;5026209;28;20071;-62
2023/03/16 04:30:16;;;;;;;5.95;4.15;;;;;;;;;;5041326;28;20045;-62
2023/03/16 04:32:42;;;;;;;7.60;4.68;;;;;;;;;;5048561;28;20080;-62
2023/03/16 04:35:09;;;;;;;7.13;4.40;;;;;;;;;;5052495;28;20116;-62
2023/03/16 04:37:36;;;;;;;6.90;4.05;;;;;;;;;;5027054;28;20051;-61
2023/03/16 04:40:14;;;;;;;6.80;4.38;;;;;;;;;;5045571;28;20083;-62
2023/03/16 04:42:40;;;;;;;6.05;4.70;;;;;;;;;;5029548;28;20077;-62
2023/03/16 04:45:07;;;;;;;9.57;4.50;;;;;;;;;;5046916;28;20594;-62
2023/03/16 04:47:33;;;;;;;8.27;4.68;;;;;;;;;;5033886;28;20054;-62
2023/03/16 04:50:04;;;;;;;7.50;4.50;;;;;;;;;;5048188;28;20112;-62
2023/03/16 04:52:30;;;;;;;5.22;4.40;;;;;;;;;;5018697;28;20037;-62
2023/03/16 04:54:57;;;;;;;7.18;5.10;;;;;;;;;;5028350;28;20032;-62
2023/03/16 04:57:23;;;;;;;9.02;4.95;;;;;;;;;;5047889;28;20107;-62
2023/03/16 04:59:49;;;;;;;7.53;4.55;;;;;;;;;;5000532;28;20068;-62
2023/03/16 05:02:16;;;;;;;8.50;4.68;;;;;;;;;;5043403;28;20516;-62
2023/03/16 05:04:42;;;;;;;8.25;4.57;;;;;;;;;;5037516;28;20475;-62
2023/03/16 05:07:09;;;;;;;8.20;5.15;;;;;;;;;;5028452;28;20064;-62
2023/03/16 05:09:35;;;;;;;6.72;4.63;;;;;;;;;;5052020;28;20398;-62
2023/03/16 05:12:01;;;;;;;10.18;5.47;;;;;;;;;;5018743;28;20049;-61
2023/03/16 05:14:27;;;;;;;8.68;4.72;;;;;;;;;;5023204;28;20417;-62
2023/03/16 05:16:53;;;;;;;12.18;5.65;;;;;;;;;;5025728;28;20124;-62
2023/03/16 05:19:19;;;;;;;8.13;4.93;;;;;;;;;;5009047;28;20136;-62
2023/03/16 05:21:45;;;;;;;10.20;5.72;;;;;;;;;;5027428;28;20437;-62
2023/03/16 05:24:12;;;;;;;7.47;6.00;;;;;;;;;;5027354;28;20460;-61
2023/03/16 05:26:38;;;;;;;7.95;5.30;;;;;;;;;;5024189;28;20126;-61
2023/03/16 05:29:04;;;;;;;11.05;6.13;;;;;;;;;;5028320;28;20188;-62
2023/03/16 05:31:34;;;;;;;10.45;5.68;;;;;;;;;;4993260;28;20064;-62
2023/03/16 05:34:01;;;;;;;9.27;5.35;;;;;;;;;;4991469;28;20060;-62
2023/03/16 05:36:27;;;;;;;8.70;5.85;;;;;;;;;;5028885;28;20140;-62
2023/03/16 05:38:53;;;;;;;8.02;5.72;;;;;;;;;;5028061;28;20092;-62
2023/03/16 05:41:20;;;;;;;15.88;6.13;;;;;;;;;;5028404;28;20041;-62
2023/03/16 05:43:46;;;;;;;11.57;5.72;;;;;;;;;;5011833;28;20305;-62
2023/03/16 05:46:12;;;;;;;8.32;5.60;;;;;;;;;;5027780;28;20041;-62
2023/03/16 05:48:39;;;;;;;10.20;5.32;;;;;;;;;;5004401;28;20159;-62
2023/03/16 05:51:05;;;;;;;11.10;5.35;;;;;;;;;;5017298;28;20364;-62
2023/03/16 05:53:32;;;;;;;9.52;5.78;;;;;;;;;;5011802;28;20124;-62
2023/03/16 05:55:58;;;;;;;14.48;6.47;;;;;;;;;;5024474;28;20088;-62
2023/03/16 05:58:24;;;;;;;7.43;5.63;;;;;;;;;;5013146;28;20517;-63
2023/03/16 06:00:50;;;;;;;12.73;6.78;;;;;;;;;;5028284;28;20100;-62
2023/03/16 06:03:16;;;;;;;11.70;6.20;;;;;;;;;;5026173;28;20091;-62
2023/03/16 06:05:43;;;;;;;11.15;6.03;;;;;;;;;;5030340;28;20359;-62
2023/03/16 06:08:10;;;;;;;11.80;6.00;;;;;;;;;;5026576;28;20066;-62
2023/03/16 06:10:36;;;;;;;10.63;6.65;;;;;;;;;;5004870;28;20535;-62
2023/03/16 06:13:02;;;;;;;7.97;5.97;;;;;;;;;;5041380;28;20473;-62
2023/03/16 06:15:29;;;;;;;8.68;5.60;;;;;;;;;;5045330;28;20033;-63
2023/03/16 06:17:55;;;;;;;10.23;6.75;;;;;;;;;;5045907;28;20056;-62
2023/03/16 06:20:21;;;;;;;11.88;6.57;;;;;;;;;;5046491;28;20056;-63
2023/03/16 06:22:48;;;;;;;9.60;6.40;;;;;;;;;;5041898;28;20073;-62
2023/03/16 06:25:14;;;;;;;8.55;6.18;;;;;;;;;;5042464;28;20029;-62
2023/03/16 06:27:40;;;;;;;10.77;6.75;;;;;;;;;;5041972;28;20618;-62
2023/03/16 06:30:08;;;;;;;7.68;5.97;;;;;;;;;;5025701;28;20526;-62
2023/03/16 06:32:36;;;;;;;12.98;6.63;;;;;;;;;;5028182;28;20052;-62
2023/03/16 06:35:03;;;;;;;9.75;5.70;;;;;;;;;;5042896;28;20814;-62
2023/03/16 06:37:29;;;;;;;12.60;7.00;;;;;;;;;;5025017;28;20123;-62
2023/03/16 06:39:56;;;;;;;9.02;5.72;;;;;;;;;;5042879;28;20046;-63
2023/03/16 06:42:22;;;;;;;9.45;6.78;;;;;;;;;;5046119;28;20077;-62
2023/03/16 06:44:49;;;;;;;10.77;6.30;;;;;;;;;;5033634;28;20091;-62
2023/03/16 06:47:15;;;;;;;11.38;6.47;;;;;;;;;;5036938;28;20467;-62
2023/03/16 06:49:41;;;;;;;12.40;6.85;;;;;;;;;;5041283;28;20448;-62
2023/03/16 06:52:09;;;;;;;10.10;6.70;;;;;;;;;;5043585;28;20037;-63
2023/03/16 06:54:36;;;;;;;10.13;6.32;;;;;;;;;;5041840;28;20037;-63
2023/03/16 06:57:02;;;;;;;11.13;5.88;;;;;;;;;;5025887;28;20045;-62
2023/03/16 06:59:29;;;;;;;11.13;6.05;;;;;;;;;;5043097;28;20040;-62
2023/03/16 07:01:55;;;;;;;9.65;6.00;;;;;;;;;;5024942;28;20076;-62
2023/03/16 07:04:21;;;;;;;7.65;5.03;;;;;;;;;;5042013;28;20367;-62
2023/03/16 07:06:47;;;;;;;9.55;6.25;;;;;;;;;;5047927;28;20169;-62
2023/03/16 07:09:14;;;;;;;10.93;5.25;;;;;;;;;;5047843;28;20491;-62
2023/03/16 07:11:40;;;;;;;11.30;5.35;;;;;;;;;;5039939;28;20056;-62
2023/03/16 07:14:06;;;;;;;10.43;6.43;;;;;;;;;;5046245;28;20028;-62
2023/03/16 07:16:33;;;;;;;9.40;6.40;;;;;;;;;;5015931;28;20045;-62
2023/03/16 07:18:59;;;;;;;9.23;5.57;;;;;;;;;;5049661;28;20439;-62
2023/03/16 07:21:25;;;;;;;7.05;5.78;;;;;;;;;;5047810;28;20156;-62
2023/03/16 07:23:51;;;;;;;9.70;5.60;;;;;;;;;;5035165;28;20033;-62
2023/03/16 07:26:18;;;;;;;8.48;5.63;;;;;;;;;;5046728;28;20620;-62
2023/03/16 07:28:44;;;;;;;12.75;5.72;;;;;;;;;;5028849;28;20033;-62
2023/03/16 07:31:11;;;;;;;7.38;5.15;;;;;;;;;;5047956;28;20637;-63
2023/03/16 07:33:37;;;;;;;10.45;6.10;;;;;;;;;;5045921;28;20033;-62
2023/03/16 07:36:05;;;;;;;5.93;4.55;;;;;;;;;;5040269;28;20564;-64
2023/03/16 07:38:32;;;;;;;8.38;6.38;;;;;;;;;;5047495;28;20057;-62
2023/03/16 07:41:01;;;;;;;6.63;4.97;;;;;;;;;;5029706;28;20624;-63
2023/03/16 07:43:28;;;;;;;9.07;5.50;;;;;;;;;;5049293;28;20671;-63
2023/03/16 07:45:54;;;;;;;8.48;5.68;;;;;;;;;;5049158;28;20044;-63
2023/03/16 07:48:21;;;;;;;10.77;6.05;;;;;;;;;;5040502;28;20383;-62
2023/03/16 07:50:48;;;;;;;8.43;5.05;;;;;;;;;;5015268;28;20155;-63
2023/03/16 07:53:14;;;;;;;8.07;5.30;;;;;;;;;;5023778;28;20061;-62
2023/03/16 07:55:41;;;;;;;11.75;5.50;;;;;;;;;;5054083;28;20113;-63
2023/03/16 07:58:09;;;;;;;10.35;5.70;;;;;;;;;;5050332;28;20149;-62
2023/03/16 08:00:35;;;;;;;10.50;5.50;;;;;;;;;;5053636;28;20037;-62
2023/03/16 08:03:01;;;;;;;7.70;4.93;;;;;;;;;;5048324;28;20037;-62
2023/03/16 08:05:28;;;;;;;7.00;4.45;;;;;;;;;;5029010;28;20102;-63
2023/03/16 08:07:56;;;;;;;8.77;5.63;;;;;;;;;;5042668;28;20041;-62
2023/03/16 08:10:22;;;;;;;6.38;4.40;;;;;;;;;;5033571;28;20049;-63
2023/03/16 08:12:48;;;;;;;8.02;5.30;;;;;;;;;;5010370;28;20138;-63
2023/03/16 08:15:14;;;;;;;9.00;5.88;;;;;;;;;;5029147;28;20495;-62
2023/03/16 08:17:40;;;;;;;11.02;5.10;;;;;;;;;;5021974;28;20416;-62
2023/03/16 08:20:09;;;;;;;8.15;5.22;;;;;;;;;;5027403;28;20037;-62
2023/03/16 08:22:36;;;;;;;7.82;4.32;;;;;;;;;;5006044;28;20395;-62
2023/03/16 08:25:03;;;;;;;12.30;4.68;;;;;;;;;;5022624;28;20048;-63
2023/03/16 08:27:29;;;;;;;7.75;5.05;;;;;;;;;;5027191;28;20042;-63
2023/03/16 08:29:56;;;;;;;9.55;5.55;;;;;;;;;;5025559;28;20108;-62
2023/03/16 08:32:22;;;;;;;8.73;5.07;;;;;;;;;;5034671;28;20045;-62
2023/03/16 08:34:48;;;;;;;8.13;4.70;;;;;;;;;;5028510;28;20037;-66
2023/03/16 08:37:15;;;;;;;8.43;4.97;;;;;;;;;;5031617;28;20052;-63
2023/03/16 08:39:42;;;;;;;8.68;5.70;;;;;;;;;;5008356;28;20407;-63
2023/03/16 08:42:09;;;;;;;9.10;5.55;;;;;;;;;;5020486;28;20128;-63
2023/03/16 08:44:35;;;;;;;7.35;5.03;;;;;;;;;;5019066;28;20233;-63
2023/03/16 08:47:04;;;;;;;8.98;5.60;;;;;;;;;;5031405;28;20376;-63
2023/03/16 08:49:30;;;;;;;10.55;5.60;;;;;;;;;;5030525;28;20068;-63
2023/03/16 08:51:56;;;;;;;6.07;4.50;;;;;;;;;;5031056;28;20041;-63
2023/03/16 08:54:22;;;;;;;8.68;5.05;;;;;;;;;;5029095;28;20814;-62
2023/03/16 08:56:50;;;;;;;6.57;4.28;;;;;;;;;;5006029;28;20460;-62
2023/03/16 08:59:17;;;;;;;9.55;5.65;;;;;;;;;;5002729;28;20049;-62
2023/03/16 09:01:43;;;;;;;6.90;4.57;;;;;;;;;;5019328;28;21520;-63
2023/03/16 09:04:10;;;;;;;8.25;5.43;;;;;;;;;;5020619;28;20417;-63
2023/03/16 09:06:36;;;;;;;6.97;4.93;;;;;;;;;;5008891;28;20037;-63
2023/03/16 09:09:03;;;;;;;11.80;5.78;;;;;;;;;;5004571;28;20060;-62
2023/03/16 09:11:32;;;;;;;8.20;4.70;;;;;;;;;;5016749;28;20175;-62
2023/03/16 09:13:59;;;;;;;9.15;4.97;;;;;;;;;;5043791;28;20124;-62
2023/03/16 09:16:25;;;;;;;7.47;5.13;;;;;;;;;;5030993;28;20049;-63
2023/03/16 09:18:52;;;;;;;7.32;4.95;;;;;;;;;;5029275;28;20045;-63
2023/03/16 09:21:18;;;;;;;7.20;4.45;;;;;;;;;;5028371;28;20048;-63
2023/03/16 09:23:45;;;;;;;9.82;5.15;;;;;;;;;;5011381;28;20509;-63
2023/03/16 09:26:12;;;;;;;9.82;4.53;;;;;;;;;;5046577;28;20103;-63
2023/03/16 09:28:40;;;;;;;6.20;4.53;;;;;;;;;;5045174;28;20127;-63
2023/03/16 09:31:07;;;;;;;10.65;4.93;;;;;;;;;;5048472;28;20044;-63
2023/03/16 09:33:34;;;;;;;6.50;4.65;;;;;;;;;;5029661;28;20037;-63
2023/03/16 09:36:01;;;;;;;9.90;4.25;;;;;;;;;;5048959;28;20032;-63
2023/03/16 09:38:28;;;;;;;6.63;4.15;;;;;;;;;;5042287;28;20041;-63
2023/03/16 09:40:57;;;;;;;10.88;5.13;;;;;;;;;;5045335;28;20490;-62
2023/03/16 09:43:24;;;;;;;7.45;4.28;;;;;;;;;;5043629;28;20049;-63
2023/03/16 09:45:53;;;;;;;9.23;5.38;;;;;;;;;;5037355;28;20444;-63
2023/03/16 09:48:20;;;;;;;12.75;5.07;;;;;;;;;;5049928;28;20037;-62
2023/03/16 09:50:47;;;;;;;7.63;4.63;;;;;;;;;;5032209;28;20037;-63
2023/03/16 09:53:23;;;;;;;6.60;4.40;;;;;;;;;;5048575;28;20029;-63
2023/03/16 09:55:52;;;;;;;8.55;4.32;;;;;;;;;;5046888;28;20179;-63
2023/03/16 09:58:21;;;;;;;14.07;5.80;;;;;;;;;;5048806;28;20041;-62
2023/03/16 10:00:47;;;;;;;7.22;4.70;;;;;;;;;;5047674;28;20304;-62
2023/03/16 10:03:40;;;;;;;8.30;3.97;;;;;;;;;;5047136;28;20120;-63
2023/03/16 10:06:11;;;;;;;8.23;4.38;;;;;;;;;;5053400;28;20037;-64
2023/03/16 10:08:39;;;;;;;7.72;4.70;;;;;;;;;;5044267;28;20040;-63
2023/03/16 10:11:06;;;;;;;9.45;5.07;;;;;;;;;;5039328;28;20063;-63
2023/03/16 10:13:37;;;;;;;9.82;4.28;;;;;;;;;;5042861;28;20523;-63
2023/03/16 10:16:09;;;;;;;7.32;3.50;;;;;;;;;;5032531;28;20455;-62
2023/03/16 10:18:39;;;;;;;7.13;3.77;;;;;;;;;;5028487;28;20095;-63
2023/03/16 10:21:09;;;;;;;6.22;3.97;;;;;;;;;;5048697;28;20036;-63
2023/03/16 10:23:35;;;;;;;5.63;3.47;;;;;;;;;;5049038;28;20045;-63
2023/03/16 10:26:06;;;;;;;7.95;4.28;;;;;;;;;;5044364;28;20120;-63
2023/03/16 10:28:32;;;;;;;8.98;3.78;;;;;;;;;;5048429;28;20041;-63
2023/03/16 10:30:59;;;;;;;5.63;4.03;;;;;;;;;;5046236;28;20087;-62
2023/03/16 10:33:31;;;;;;;6.85;3.85;;;;;;;;;;5022309;28;20045;-62
2023/03/16 10:35:57;;;;;;;7.57;4.25;;;;;;;;;;5044373;28;20048;-63
2023/03/16 10:38:45;;;;;;;8.45;4.25;;;;;;;;;;5035648;28;20044;-63
2023/03/16 10:41:17;;;;;;;6.72;3.80;;;;;;;;;;5047198;28;20051;-63
2023/03/16 10:43:44;;;;;;;6.25;4.35;;;;;;;;;;5048108;28;20040;-63
2023/03/16 10:46:11;;;;;;;7.13;3.63;;;;;;;;;;5030813;28;20555;-63
2023/03/16 10:48:39;;;;;;;7.50;3.45;;;;;;;;;;5045022;28;20170;-63
2023/03/16 10:51:11;;;;;;;8.98;4.05;;;;;;;;;;5047382;28;20043;-63
2023/03/16 10:53:40;;;;;;;6.93;4.75;;;;;;;;;;5043426;28;20095;-63
2023/03/16 10:56:13;;;;;;;7.47;4.13;;;;;;;;;;5043682;28;20052;-63
2023/03/16 10:58:41;;;;;;;6.78;3.60;;;;;;;;;;5038223;28;20088;-63
2023/03/16 11:01:12;;;;;;;8.45;4.40;;;;;;;;;;5029083;28;20108;-63
2023/03/16 11:03:40;;;;;;;5.63;3.53;;;;;;;;;;5041536;28;20048;-63
2023/03/16 11:06:16;;;;;;;7.53;3.83;;;7.00;99.90;;;;;;5034454;28;20091;-63
2023/03/16 11:08:44;;;;;;;5.43;3.45;;;6.30;99.90;;;;;;5049166;28;20048;-63
2023/03/16 11:11:33;;;;;;;6.72;3.95;;;6.30;99.90;;;;;;5013700;28;20033;-63
2023/03/16 11:14:03;;;;;;;5.45;4.03;;;6.30;99.90;;;;;;5018434;28;20049;-63
2023/03/16 11:16:59;;;;;;;7.20;3.72;;;6.40;99.90;;;;;;5032246;28;20119;-63
2023/03/16 11:19:38;;;;;;;6.13;3.75;;;6.40;99.90;;;;;;5011722;28;20439;-63
2023/03/16 11:22:15;;;;;;;6.25;3.40;;;6.40;99.90;;;;;;5019306;28;20486;-63
2023/03/16 11:25:02;;;;;;;7.28;4.30;;;6.50;99.90;;;;;;5034954;28;20120;-63
2023/03/16 11:28:00;;;;;;;5.75;3.63;;;6.50;99.90;;;;;;5014664;28;20052;-62
2023/03/16 11:30:45;;;;;;;8.10;3.50;;;6.60;99.90;;;;;;5028329;28;20048;-63
2023/03/16 11:33:15;;;;;;;6.72;3.67;;;;;;;;;;5028045;28;20057;-63
2023/03/16 11:35:53;;;;;;;7.07;3.60;;;;;;;;;;5022212;28;20080;-63
2023/03/16 11:38:21;;;;;;;7.97;4.50;;;;;;;;;;5021187;28;20044;-62
2023/03/16 11:41:00;;;;;;;5.85;3.80;;;6.70;99.90;;;;;;5015521;28;20053;-63
2023/03/16 11:43:46;;;;;;;6.35;3.60;;;;;;;;;;5029318;28;20124;-63
2023/03/16 11:46:31;;;;;;;7.00;4.63;;;;;;;;;;5027194;28;20057;-65
2023/03/16 11:49:16;;;;;;;6.40;4.10;;;;;;;;;;5030794;28;20296;-63
2023/03/16 11:51:47;;;;;;;6.80;3.80;;;;;;;;;;5028453;28;20073;-63
2023/03/16 11:54:32;;;;;;;8.95;5.30;;;;;;;;;;5035803;28;20029;-63
2023/03/16 11:57:06;;;;;;;7.38;4.25;;;;;;;;;;5036352;28;20041;-63
2023/03/16 11:59:44;;;;;;;6.88;3.97;;;;;;;;;;5028625;28;20034;-63
2023/03/16 12:02:32;;;;;;;7.38;4.05;;;;;;;;;;5029369;28;20156;-62
2023/03/16 12:05:15;;;;;;;6.78;4.50;;;;;;;;;;5035130;28;20590;-63
2023/03/16 12:07:41;;;;;;;;;;;;;;;;;;5026570;28;20091;-63
2023/03/16 12:10:08;;;;;;;6.10;3.88;;;;;;;;;;5028216;28;19927;-62
2023/03/16 12:12:36;;;;;;;6.55;3.80;;;;;;;;;;5037237;28;20048;-63
2023/03/16 12:15:02;;;;;;;6.60;4.05;;;;;;;;;;5049243;28;20561;-62
2023/03/16 12:17:29;;;;;;;5.18;3.83;;;;;;;;;;5048446;28;20064;-62
2023/03/16 12:19:59;;;;;;;5.22;3.78;;;;;;;;;;5031231;28;20090;-62
2023/03/16 12:22:28;;;;;;;7.60;4.05;;;;;;;;;;5050273;28;20435;-63
2023/03/16 12:24:54;;;;;;;9.00;4.72;;;;;;;;;;5052325;28;20043;-63
2023/03/16 12:27:26;;;;;;;6.07;3.75;;;;;;;;;;5027065;28;20052;-63
2023/03/16 12:29:58;;;;;;;7.13;3.47;;;;;;;;;;5030062;28;20068;-63
2023/03/16 12:32:35;;;;;;;9.03;4.27;;;;;;;;;;5032679;28;20069;-63
2023/03/16 12:35:21;;;;;;;8.35;4.28;;;;;;;;;;5047998;28;20036;-63
2023/03/16 12:37:57;;;;;;;6.88;4.55;;;;;;;;;;4981146;28;20041;-62
2023/03/16 12:40:32;;;;;;;9.00;4.10;;;;;;;;;;5048359;28;20299;-63
2023/03/16 12:43:05;;;;;;;8.45;4.18;;;;;;;;;;5048602;28;20065;-63
2023/03/16 12:45:50;;;;;;;7.10;4.60;;;;;;;;;;5042591;28;20049;-63
2023/03/16 12:48:23;;;;;;;5.53;4.20;;;;;;;;;;5045452;28;20663;-63
2023/03/16 12:50:54;;;;;;;7.45;4.25;;;;;;;;;;5048046;28;20143;-63
2023/03/16 12:53:39;;;;;;;5.43;4.15;;;;;;;;;;5024142;28;20049;-63
2023/03/16 12:56:08;;;;;;;6.07;3.83;;;;;;;;;;5022364;28;20037;-63
2023/03/16 12:58:35;;;;;;;5.90;4.10;;;;;;;;;;5047274;28;20131;-63
2023/03/16 13:01:02;;;;;;;9.02;3.97;;;;;;;;;;5046579;28;20535;-63
2023/03/16 13:03:28;;;;;;;7.82;4.60;;;;;;;;;;5046852;28;20032;-62
2023/03/16 13:05:59;;;;;;;5.00;3.35;;;;;;;;;;5046415;28;20037;-63
2023/03/16 13:08:26;;;;;;;8.93;4.45;;;;;;;;;;5047521;28;20064;-63
2023/03/16 13:11:00;;;;;;;7.28;4.30;;;;;;;;;;5028995;28;23210;-63
2023/03/16 13:13:27;;;;;;;5.55;3.63;;;;;;;;;;5013899;28;20075;-63
2023/03/16 13:16:04;;;;;;;6.50;4.40;;;;;;;;;;5017976;28;20480;-64
2023/03/16 13:18:43;;;;;;;7.82;4.03;;;6.80;99.90;;;;;;5015405;28;20049;-63
2023/03/16 13:21:17;;;;;;;11.13;5.07;;;;;;;;;;5025339;28;20025;-63
2023/03/16 13:23:57;;;;;;;6.32;3.47;;;;;;;;;;5013303;28;20041;-63
2023/03/16 13:26:32;;;;;;;10.57;4.68;;;;;;;;;;5019621;28;20191;-63
2023/03/16 13:28:58;;;;;;;5.88;3.50;;;;;;;;;;5012210;28;20400;-63
2023/03/16 13:31:26;;;;;;;5.03;3.88;;;;;;;;;;5020725;28;20396;-63
2023/03/16 13:33:58;;;;;;;8.40;3.55;;;;;;;;;;5011850;28;20045;-63
2023/03/16 13:36:26;;;;;;;5.03;3.03;;;;;;;;;;5017255;28;20045;-63
2023/03/16 13:39:04;;;;;;;8.13;4.22;;;;;;;;;;5016966;28;20037;-63
2023/03/16 13:41:30;;;;;;;6.82;3.97;;;;;;;;;;5038551;28;20399;-63
2023/03/16 13:43:56;;;;;;;8.85;3.97;;;;;;;;;;5026893;28;20033;-63
2023/03/16 13:46:27;;;;;;;9.82;4.53;;;8.80;99.90;;;;;;5001438;28;20129;-63
2023/03/16 13:48:57;;;;;;;6.15;4.28;;;8.80;99.90;;;;;;5016459;28;20384;-63
2023/03/16 13:51:23;;;;;;;7.88;4.68;;;;;;;;;;5024044;28;20037;-64
2023/03/16 13:53:49;;;;;;;8.75;4.57;;;;;;;;;;5021966;28;20053;-63
2023/03/16 13:56:18;;;;;;;6.25;3.72;;;;;;;;;;5015651;28;20061;-63
2023/03/16 13:58:47;;;;;;;6.53;4.63;;;;;;;;;;5027703;28;20068;-63
2023/03/16 14:01:23;;;;;;;5.85;3.83;;;;;;;;;;5025222;28;20041;-63
2023/03/16 14:03:50;;;;;;;8.18;3.85;;;;;;;;;;5020025;28;20132;-63
2023/03/16 14:06:27;;;;;;;7.90;4.30;;;;;;;;;;5011888;28;20057;-63
2023/03/16 14:08:57;;;;;;;4.72;3.80;;;;;;;;;;5021339;28;20095;-63
2023/03/16 14:11:23;;;;;;;8.55;4.22;;;;;;;;;;5021361;28;20053;-63
2023/03/16 14:13:52;;;;;;;9.98;4.20;;;;;;;;;;5044339;28;20155;-63
2023/03/16 14:16:19;;;;;;;6.43;3.97;;;;;;;;;;5050996;28;20559;-63
2023/03/16 14:18:49;;;;;;;6.32;3.75;;;;;;;;;;5049282;28;20087;-63
2023/03/16 14:21:17;;;;;;;7.65;3.97;;;;;;;;;;5050228;28;20095;-63
2023/03/16 14:23:44;;;;;;;5.60;4.05;;;;;;;;;;5056181;28;20526;-63
2023/03/16 14:26:15;;;;;;;7.97;4.03;;;;;;;;;;5050442;28;20045;-63
2023/03/16 14:28:52;;;;;;;7.20;4.30;;;;;;;;;;5047874;28;20076;-63
2023/03/16 14:31:20;;;;;;;7.72;3.92;;;;;;;;;;5050105;28;20498;-63
2023/03/16 14:33:46;;;;;;;7.15;4.70;;;;;;;;;;5049215;28;20036;-63
2023/03/16 14:36:14;;;;;;;8.00;4.95;;;;;;;;;;5050539;28;20124;-63
2023/03/16 14:38:41;;;;;;;9.40;4.47;;;;;;;;;;5037122;28;20065;-63
2023/03/16 14:41:08;;;;;;;8.15;4.10;;;;;;;;;;5015468;28;20052;-63
2023/03/16 14:43:40;;;;;;;7.15;3.88;;;;;;;;;;5051443;28;20072;-65
2023/03/16 14:46:07;;;;;;;6.35;4.00;;;;;;;;;;5050587;28;20561;-64
2023/03/16 14:48:34;;;;;;;8.40;4.85;;;;;;;;;;5050520;28;20547;-63